Time;durP1;ratioP1;P1;durP2;ratioP2;P2;SDS_P1;SDS_P2;PMS_P1;PMS_P2;Temp;Humidity;BMP_temperature;BMP_pressure;BME280_temperature;BME280_humidity;BME280_pressure;Samples;Min_cycle;Max_cycle;Signal;HPM_P1;HPM_P2
2023/12/16 00:01:17;;;;;;;;;11.40;11.40;;;;;1.08;55.26;100970.06;5089469;28;8855;-74
2023/12/16 00:03:48;;;;;;;;;8.00;6.00;;;;;1.05;55.24;100982.91;5037003;28;8839;-74
2023/12/16 00:06:20;;;;;;;;;12.00;12.00;;;;;0.63;56.33;100988.00;5078137;28;8985;-75
2023/12/16 00:08:49;;;;;;;;;12.80;12.80;;;;;0.51;56.46;100993.53;5103621;28;8864;-74
2023/12/16 00:11:18;;;;;;;;;13.40;11.20;;;;;0.80;56.09;100983.53;5071719;28;8932;-75
2023/12/16 00:13:47;;;;;;;;;14.60;14.60;;;;;1.03;55.69;100981.94;5090153;28;8886;-75
2023/12/16 00:16:16;;;;;;;;;12.40;12.40;;;;;1.02;55.36;100983.63;5098691;28;8845;-74
2023/12/16 00:18:47;;;;;;;;;15.60;12.80;;;;;0.94;54.81;100979.84;5106605;28;8872;-74
2023/12/16 00:21:16;;;;;;;;;17.80;13.80;;;;;0.70;55.42;100977.09;5073255;28;8844;-74
2023/12/16 00:23:45;;;;;;;;;13.00;13.00;;;;;0.68;55.49;100986.50;5053017;28;8899;-74
2023/12/16 00:26:14;;;;;;;;;14.20;11.80;;;;;0.51;56.02;100990.94;5090149;28;8839;-72
2023/12/16 00:28:43;;;;;;;;;12.80;12.80;;;;;0.56;55.77;100998.94;5088588;28;9500;-74
2023/12/16 00:31:12;;;;;;;;;12.00;12.00;;;;;0.53;55.76;100991.03;5054708;28;8868;-74
2023/12/16 00:33:41;;;;;;;;;12.00;12.00;;;;;0.53;55.28;101001.38;5078865;28;8840;-75
2023/12/16 00:36:12;;;;;;;;;12.40;9.00;;;;;0.41;55.35;100992.25;5073040;28;8863;-73
2023/12/16 00:38:41;;;;;;;;;13.00;10.80;;;;;0.20;55.65;101004.25;5070821;28;8838;-74
2023/12/16 00:41:10;;;;;;;;;11.80;10.40;;;;;0.12;55.84;101006.47;5075815;28;8863;-75
2023/12/16 00:43:39;;;;;;;;;14.80;11.80;;;;;0.28;55.87;101000.31;5078684;28;8936;-76
2023/12/16 00:46:09;;;;;;;;;11.40;11.40;;;;;0.45;55.32;101001.91;5079048;28;8839;-75
2023/12/16 00:48:38;;;;;;;;;11.80;7.60;;;;;0.27;55.29;100994.25;5077179;28;8839;-75
2023/12/16 00:51:07;;;;;;;;;11.60;11.60;;;;;0.30;55.49;100996.06;5043119;28;8860;-73
2023/12/16 00:53:38;;;;;;;;;10.80;9.60;;;;;0.14;55.71;100993.63;5096766;28;8831;-76
2023/12/16 00:56:08;;;;;;;;;12.60;11.60;;;;;0.22;55.82;100997.44;5072260;28;8846;-77
2023/12/16 00:58:37;;;;;;;;;13.60;13.20;;;;;0.45;55.21;101006.22;5071741;28;8931;-75
2023/12/16 01:01:06;;;;;;;;;9.40;9.00;;;;;0.20;54.68;100996.50;5079816;28;8847;-75
2023/12/16 01:03:37;;;;;;;;;15.00;11.00;;;;;0.22;55.38;101003.50;5071237;28;8860;-75
2023/12/16 01:06:06;;;;;;;;;12.00;12.00;;;;;0.32;55.60;101014.25;5036598;28;8854;-76
2023/12/16 01:08:35;;;;;;;;;9.80;9.80;;;;;0.15;54.65;101009.22;5017628;28;8854;-76
2023/12/16 01:11:06;;;;;;;;;11.80;11.60;;;;;0.12;54.54;101009.06;5071074;28;8858;-77
2023/12/16 01:13:35;;;;;;;;;14.80;13.00;;;;;0.13;54.77;101007.38;5068377;28;9586;-74
2023/12/16 01:16:05;;;;;;;;;15.40;14.80;;;;;-0.03;55.62;101013.53;5068704;28;8862;-76
2023/12/16 01:18:34;;;;;;;;;13.00;9.40;;;;;-0.01;55.25;101005.06;5071154;28;8838;-76
2023/12/16 01:21:05;;;;;;;;;11.40;10.00;;;;;-0.15;55.42;101004.41;5071619;28;8868;-76
2023/12/16 01:23:34;;;;;;;;;13.40;11.40;;;;;-0.04;55.48;101012.66;5082048;28;9659;-77
2023/12/16 01:26:05;;;;;;;;;11.60;11.60;;;;;-0.22;55.53;101014.38;5057599;28;9009;-76
2023/12/16 01:28:35;;;;;;;;;9.80;8.40;;;;;-0.13;54.76;101012.22;5072325;28;8898;-76
2023/12/16 01:31:04;;;;;;;;;10.20;8.60;;;;;-0.25;54.83;101011.69;5067720;28;8891;-76
2023/12/16 01:33:33;;;;;;;;;16.80;12.00;;;;;-0.31;55.75;101018.31;5072137;28;8881;-77
2023/12/16 01:36:02;;;;;;;;;8.40;8.40;;;;;-0.04;55.21;101020.41;5079000;28;8878;-76
2023/12/16 01:38:31;;;;;;;;;17.80;12.00;;;;;0.14;54.86;101016.88;5034660;28;8831;-75
2023/12/16 01:41:00;;;;;;;;;12.00;11.40;;;;;-0.09;55.14;101005.50;5081453;28;8863;-76
2023/12/16 01:43:31;;;;;;;;;15.60;13.60;;;;;-0.18;55.43;101012.03;5083170;28;8836;-75
2023/12/16 01:46:04;;;;;;;;;9.00;9.00;;;;;0.01;55.27;101012.84;5071652;28;9889;-76
2023/12/16 01:48:35;;;;;;;;;12.00;11.40;;;;;-0.22;55.53;101004.06;5048740;28;9326;-75
2023/12/16 01:51:04;;;;;;;;;12.20;12.20;;;;;-0.16;55.27;101020.75;5081676;28;8893;-76
2023/12/16 01:53:35;;;;;;;;;14.20;11.20;;;;;-0.13;55.28;101027.75;5081741;28;8848;-75
2023/12/16 01:56:04;;;;;;;;;11.40;11.40;;;;;0.05;55.31;101031.19;5089995;28;9597;-74
2023/12/16 01:58:36;;;;;;;;;13.80;11.60;;;;;0.08;54.56;101040.75;5081528;28;8851;-76
2023/12/16 02:01:05;;;;;;;;;11.80;11.60;;;;;-0.00;55.27;101039.53;5071852;28;8838;-74
2023/12/16 02:03:37;;;;;;;;;14.00;12.00;;;;;0.09;55.24;101050.31;5070084;28;8843;-75
2023/12/16 02:06:06;;;;;;;;;12.00;11.00;;;;;0.19;54.96;101047.31;5082375;28;8912;-75
2023/12/16 02:08:37;;;;;;;;;14.00;13.60;;;;;0.17;54.67;101055.81;5069753;28;8835;-75
2023/12/16 02:11:10;;;;;;;;;21.40;17.60;;;;;0.30;54.54;101052.97;5068431;28;8865;-76
2023/12/16 02:13:42;;;;;;;;;14.60;11.40;;;;;0.34;55.10;101048.84;5074802;28;8878;-76
2023/12/16 02:16:11;;;;;;;;;12.20;11.60;;;;;0.19;55.47;101054.19;5018211;28;8846;-75
2023/12/16 02:18:40;;;;;;;;;15.00;12.40;;;;;0.50;54.70;101055.56;5070456;28;8864;-76
2023/12/16 02:21:09;;;;;;;;;13.00;12.80;;;;;0.44;54.83;101056.16;5083225;28;8866;-76
2023/12/16 02:23:41;;;;;;;;;19.60;18.60;;;;;0.39;54.99;101058.56;5081582;28;8944;-76
2023/12/16 02:26:10;;;;;;;;;19.80;16.60;;;;;0.24;55.61;101063.06;5069785;28;8854;-75
2023/12/16 02:28:40;;;;;;;;;20.60;17.00;;;;;0.31;55.49;101069.38;5070196;28;8990;-76
2023/12/16 02:31:08;;;;;;;;;15.80;15.40;;;;;0.44;55.26;101067.44;5070284;28;10117;-75
2023/12/16 02:33:38;;;;;;;;;27.00;20.00;;;;;0.36;55.58;101079.13;5069729;28;8894;-75
2023/12/16 02:36:08;;;;;;;;;22.00;18.20;;;;;0.05;56.16;101079.41;5069714;28;8890;-75
2023/12/16 02:38:37;;;;;;;;;19.80;17.20;;;;;0.21;56.10;101081.00;5059330;28;8858;-77
2023/12/16 02:41:07;;;;;;;;;17.60;15.00;;;;;0.23;56.28;101084.53;5069578;28;8894;-75
2023/12/16 02:43:36;;;;;;;;;25.20;21.00;;;;;0.14;56.80;101084.13;5070134;28;8902;-76
2023/12/16 02:46:05;;;;;;;;;19.80;16.60;;;;;-0.08;57.08;101083.13;5075739;28;9528;-74
2023/12/16 02:48:34;;;;;;;;;25.40;18.40;;;;;-0.07;57.68;101084.88;5074091;28;9467;-75
2023/12/16 02:51:03;;;;;;;;;21.60;19.80;;;;;-0.13;58.21;101085.47;5072442;28;8905;-75
2023/12/16 02:53:32;;;;;;;;;18.60;17.40;;;;;-0.06;58.09;101094.44;5071526;28;8857;-74
2023/12/16 02:56:01;;;;;;;;;20.20;17.40;;;;;-0.19;58.59;101082.63;5120534;27;8847;-76
2023/12/16 02:58:32;;;;;;;;;20.20;18.20;;;;;-0.30;58.59;101099.28;5074274;28;8862;-73
2023/12/16 03:01:00;;;;;;;;;22.20;18.20;;;;;-0.21;58.56;101096.28;5078240;28;8878;-75
2023/12/16 03:03:30;;;;;;;;;19.20;15.00;;;;;-0.23;58.95;101108.25;5039770;28;9004;-74
2023/12/16 03:06:04;;;;;;;;;22.00;18.20;;;;;-0.21;58.92;101109.22;5083101;28;9601;-74
2023/12/16 03:08:34;;;;;;;;;18.80;17.60;;;;;-0.31;59.24;101118.22;5084558;28;9616;-73
2023/12/16 03:11:04;;;;;;;;;18.20;17.80;;;;;-0.31;59.72;101113.94;5071506;28;8881;-76
2023/12/16 03:13:35;;;;;;;;;20.20;20.20;;;;;-0.27;59.40;101116.66;5085499;28;8852;-76
2023/12/16 03:16:05;;;;;;;;;17.40;15.00;;;;;-0.27;59.25;101122.72;5070722;28;8850;-75
2023/12/16 03:18:34;;;;;;;;;23.00;15.20;;;;;-0.26;59.28;101131.34;5072438;28;8854;-76
2023/12/16 03:21:05;;;;;;;;;19.00;17.60;;;;;-0.28;59.49;101131.25;5072200;28;8943;-75
2023/12/16 03:23:35;;;;;;;;;18.40;18.00;;;;;-0.26;59.26;101134.81;5084578;28;8851;-74
2023/12/16 03:26:04;;;;;;;;;18.80;17.20;;;;;-0.44;60.00;101144.25;5088259;28;9062;-75
2023/12/16 03:28:35;;;;;;;;;20.00;19.60;;;;;-0.20;58.92;101141.97;5095885;28;8961;-75
2023/12/16 03:31:04;;;;;;;;;19.40;17.40;;;;;-0.17;59.13;101150.75;5084959;28;8922;-75
2023/12/16 03:33:33;;;;;;;;;18.40;16.80;;;;;-0.04;58.65;101162.59;5055126;28;8863;-75
2023/12/16 03:36:02;;;;;;;;;12.40;12.40;;;;;0.07;58.33;101173.44;5061447;28;8851;-75
2023/12/16 03:38:31;;;;;;;;;18.40;17.00;;;;;-0.10;58.92;101180.41;5064444;28;8894;-75
2023/12/16 03:41:00;;;;;;;;;18.80;15.00;;;;;0.04;58.28;101187.09;5068030;28;8895;-74
2023/12/16 03:43:28;;;;;;;;;19.40;17.20;;;;;-0.06;58.46;101192.66;5048661;28;8870;-75
2023/12/16 03:45:58;;;;;;;;;20.20;17.80;;;;;-0.22;58.43;101206.53;5065847;28;8872;-74
2023/12/16 03:48:27;;;;;;;;;18.60;15.40;;;;;-0.17;58.86;101206.75;5053838;28;8956;-74
2023/12/16 03:50:56;;;;;;;;;23.40;20.20;;;;;-0.11;59.14;101205.34;5066586;28;8919;-74
2023/12/16 03:53:25;;;;;;;;;21.00;20.20;;;;;-0.22;59.57;101203.03;5066378;28;8839;-76
2023/12/16 03:55:54;;;;;;;;;23.00;19.60;;;;;-0.17;58.98;101222.25;5063709;28;8867;-74
2023/12/16 03:58:22;;;;;;;;;19.00;18.00;;;;;-0.09;59.21;101208.00;5047400;28;8872;-76
2023/12/16 04:00:51;;;;;;;;;21.00;14.80;;;;;-0.01;58.81;101217.03;5057507;28;8888;-74
2023/12/16 04:03:22;;;;;;;;;18.00;15.00;;;;;0.22;58.32;101215.56;5065512;28;8863;-76
2023/12/16 04:05:51;;;;;;;;;19.20;18.80;;;;;0.33;57.76;101208.31;5065034;28;9016;-77
2023/12/16 04:08:20;;;;;;;;;16.80;14.20;;;;;0.47;57.31;101220.19;5016928;28;8846;-75
2023/12/16 04:10:49;;;;;;;;;25.80;23.80;;;;;0.41;57.17;101216.44;5064983;28;8877;-75
2023/12/16 04:13:18;;;;;;;;;25.00;21.20;;;;;0.37;57.12;101227.44;5067033;28;8850;-73
2023/12/16 04:15:52;;;;;;;;;20.00;20.00;;;;;0.41;57.27;101238.03;5071714;28;8858;-75
2023/12/16 04:18:23;;;;;;;;;22.00;20.60;;;;;0.41;57.67;101239.72;5071070;28;8846;-75
2023/12/16 04:20:52;;;;;;;;;21.80;20.20;;;;;0.35;57.36;101249.75;5073342;28;9001;-75
2023/12/16 04:23:21;;;;;;;;;22.40;21.00;;;;;0.49;57.27;101243.56;5076182;28;8900;-74
2023/12/16 04:25:50;;;;;;;;;26.40;23.20;;;;;0.33;57.26;101249.72;5080773;28;8854;-73
2023/12/16 04:28:19;;;;;;;;;16.80;14.60;;;;;0.54;57.04;101249.84;5037338;28;8881;-74
2023/12/16 04:30:48;;;;;;;;;25.20;23.20;;;;;0.51;56.87;101253.97;5084386;28;8855;-75
2023/12/16 04:33:17;;;;;;;;;27.20;21.80;;;;;0.54;56.56;101262.78;5088264;28;8835;-75
2023/12/16 04:35:48;;;;;;;;;21.40;20.00;;;;;0.51;56.63;101262.63;5033626;28;8843;-75
2023/12/16 04:38:17;;;;;;;;;25.20;21.00;;;;;0.63;56.40;101264.91;5072218;28;8886;-76
2023/12/16 04:40:46;;;;;;;;;24.20;21.00;;;;;0.60;56.46;101270.81;5083419;28;8901;-75
2023/12/16 04:43:15;;;;;;;;;22.20;21.80;;;;;0.49;56.45;101269.44;5069282;28;8849;-76
2023/12/16 04:45:45;;;;;;;;;25.40;24.00;;;;;0.35;57.06;101268.78;5070090;28;8858;-75
2023/12/16 04:48:14;;;;;;;;;24.20;21.80;;;;;0.31;57.06;101276.28;5070268;28;8854;-75
2023/12/16 04:50:43;;;;;;;;;22.20;21.40;;;;;0.47;56.61;101274.53;5071976;28;8880;-75
2023/12/16 04:53:14;;;;;;;;;26.60;24.00;;;;;0.53;56.37;101275.63;5067291;28;8854;-76
2023/12/16 04:55:42;;;;;;;;;25.60;19.80;;;;;0.56;56.21;101283.56;5083961;28;8866;-76
2023/12/16 04:58:12;;;;;;;;;23.00;23.00;;;;;0.56;56.27;101283.56;5081123;28;8947;-76
2023/12/16 05:00:41;;;;;;;;;31.60;28.40;;;;;0.56;56.27;101283.56;5083006;28;8864;-76
2023/12/16 05:03:10;;;;;;;;;24.00;21.40;;;;;0.64;55.97;101282.22;5079638;28;8858;-75
2023/12/16 05:05:39;;;;;;;;;24.80;23.80;;;;;0.64;55.82;101284.81;5070579;28;8927;-75
2023/12/16 05:08:08;;;;;;;;;24.20;21.00;;;;;0.64;55.62;101283.09;5086343;28;8846;-75
2023/12/16 05:10:38;;;;;;;;;32.00;29.80;;;;;0.58;56.06;101293.16;5083727;28;8873;-75
2023/12/16 05:13:09;;;;;;;;;29.80;29.80;;;;;0.67;55.63;101284.94;5078935;28;8883;-74
2023/12/16 05:15:39;;;;;;;;;40.50;35.25;;;;;0.42;55.71;101285.47;5075321;28;8884;-75
2023/12/16 05:18:08;;;;;;;;;44.25;37.75;;;;;0.40;55.99;101287.97;5070504;28;8867;-74
2023/12/16 05:20:38;;;;;;;;;41.75;36.25;;;;;0.43;55.71;101282.94;5077746;28;8843;-75
2023/12/16 05:23:08;;;;;;;;;43.80;40.20;;;;;0.31;56.46;101282.34;5040716;28;8834;-74
2023/12/16 05:25:39;;;;;;;;;34.40;30.20;;;;;0.28;56.50;101284.81;5069845;28;8861;-74
2023/12/16 05:28:09;;;;;;;;;31.25;31.00;;;;;0.32;56.36;101286.72;5070472;28;8855;-76
2023/12/16 05:30:38;;;;;;;;;29.80;27.60;;;;;0.39;56.18;101291.38;5103916;27;8855;-76
2023/12/16 05:33:07;;;;;;;;;30.00;26.40;;;;;0.16;56.54;101286.78;5051488;28;8859;-77
2023/12/16 05:35:36;;;;;;;;;33.20;29.20;;;;;0.15;56.83;101285.88;5069724;28;8862;-75
2023/12/16 05:38:05;;;;;;;;;26.00;25.20;;;;;0.12;56.69;101282.25;5078063;28;8948;-75
2023/12/16 05:40:34;;;;;;;;;34.40;27.60;;;;;0.23;56.43;101268.16;5076191;28;8850;-76
2023/12/16 05:43:04;;;;;;;;;28.60;28.40;;;;;0.14;56.39;101272.88;5085873;28;8889;-75
2023/12/16 05:45:33;;;;;;;;;29.20;26.80;;;;;0.04;56.62;101264.66;5088017;28;8870;-73
2023/12/16 05:48:03;;;;;;;;;22.80;21.60;;;;;0.17;56.25;101270.47;5077596;28;8877;-74
2023/12/16 05:50:32;;;;;;;;;27.20;26.20;;;;;-0.03;56.42;101272.94;5065982;28;8997;-74
2023/12/16 05:53:01;;;;;;;;;28.80;27.20;;;;;0.02;56.70;101278.34;5078424;28;8854;-74
2023/12/16 05:55:30;;;;;;;;;27.20;24.80;;;;;0.14;56.34;101278.97;5086718;28;8879;-74
2023/12/16 05:57:59;;;;;;;;;23.40;20.40;;;;;0.27;55.91;101281.34;5093552;28;8970;-75
2023/12/16 06:00:29;;;;;;;;;22.60;20.80;;;;;0.07;56.42;101285.50;5088255;28;8859;-76
2023/12/16 06:02:58;;;;;;;;;24.80;24.20;;;;;0.25;56.03;101289.81;5104044;28;9048;-75
2023/12/16 06:05:28;;;;;;;;;28.00;26.20;;;;;0.23;55.97;101283.69;5076783;28;8850;-75
2023/12/16 06:07:57;;;;;;;;;23.20;20.00;;;;;0.30;55.93;101283.16;5068078;28;8834;-73
2023/12/16 06:10:26;;;;;;;;;23.80;23.60;;;;;0.32;55.72;101283.25;5049616;28;8862;-76
2023/12/16 06:12:55;;;;;;;;;22.20;19.60;;;;;0.48;55.30;101278.00;5065688;28;8855;-74
2023/12/16 06:15:24;;;;;;;;;25.20;22.00;;;;;0.45;55.22;101278.75;5049896;28;8858;-75
2023/12/16 06:17:55;;;;;;;;;30.40;27.00;;;;;0.25;55.54;101280.38;5110978;27;8838;-75
2023/12/16 06:20:24;;;;;;;;;19.80;19.00;;;;;-0.07;56.03;101283.03;5099951;28;8861;-74
2023/12/16 06:22:53;;;;;;;;;25.00;22.00;;;;;-0.17;56.61;101285.16;5066484;28;8874;-75
2023/12/16 06:25:22;;;;;;;;;29.80;27.20;;;;;-0.84;59.09;101285.13;5067690;28;8834;-75
2023/12/16 06:27:52;;;;;;;;;31.60;26.20;;;;;-1.46;61.51;101283.47;5067740;28;8885;-74
2023/12/16 06:30:21;;;;;;;;;23.00;21.00;;;;;-1.82;62.99;101290.91;5066548;28;8975;-75
2023/12/16 06:32:50;;;;;;;;;22.80;21.20;;;;;-1.50;62.09;101290.16;5044912;28;8867;-76
2023/12/16 06:35:21;;;;;;;;;21.80;20.60;;;;;-1.81;63.40;101297.81;5064512;28;8853;-75
2023/12/16 06:37:50;;;;;;;;;27.40;25.40;;;;;-1.94;63.82;101295.34;5065329;28;8829;-75
2023/12/16 06:40:19;;;;;;;;;24.60;23.40;;;;;-2.00;64.09;101289.84;5050477;28;8851;-73
2023/12/16 06:42:48;;;;;;;;;20.60;20.20;;;;;-1.70;63.36;101295.88;5045264;28;8860;-77
2023/12/16 06:45:17;;;;;;;;;14.80;14.80;;;;;-1.99;64.34;101296.78;5028837;28;8851;-75
2023/12/16 06:47:46;;;;;;;;;27.60;24.00;;;;;-1.91;63.83;101308.41;5045499;28;8843;-75
2023/12/16 06:50:15;;;;;;;;;23.80;23.80;;;;;-2.27;65.23;101305.44;5048706;28;8857;-74
2023/12/16 06:52:46;;;;;;;;;27.60;24.40;;;;;-2.31;65.61;101303.50;5051264;28;8851;-75
2023/12/16 06:55:15;;;;;;;;;24.80;20.40;;;;;-2.02;64.59;101307.78;5048677;28;8834;-75
2023/12/16 06:57:44;;;;;;;;;21.00;20.40;;;;;-2.30;65.75;101306.19;5040445;28;8861;-77
2023/12/16 07:00:14;;;;;;;;;26.00;23.80;;;;;-2.08;64.91;101312.59;5045431;28;8856;-76
2023/12/16 07:02:43;;;;;;;;;22.60;20.40;;;;;-2.02;64.24;101312.94;5044785;28;8944;-78
2023/12/16 07:05:12;;;;;;;;;26.60;22.40;;;;;-1.81;64.42;101310.72;5082673;28;8969;-76
2023/12/16 07:07:41;;;;;;;;;24.40;23.40;;;;;-1.84;64.15;101325.09;5075386;28;9052;-75
2023/12/16 07:10:12;;;;;;;;;26.40;24.60;;;;;-1.51;63.10;101334.78;5068913;28;8872;-77
2023/12/16 07:12:41;;;;;;;;;31.40;29.40;;;;;-1.41;62.80;101325.91;5081798;28;8860;-76
2023/12/16 07:15:10;;;;;;;;;19.80;19.60;;;;;-1.05;61.63;101326.16;5062301;28;8860;-77
2023/12/16 07:17:40;;;;;;;;;26.80;26.00;;;;;-1.35;62.74;101335.69;5048166;28;8875;-76
2023/12/16 07:20:10;;;;;;;;;26.20;23.80;;;;;-1.77;64.02;101335.88;5064457;28;8859;-77
2023/12/16 07:22:40;;;;;;;;;31.40;30.00;;;;;-1.78;64.26;101340.97;5031241;28;8974;-82
2023/12/16 07:25:09;;;;;;;;;28.40;23.80;;;;;-1.78;64.13;101338.38;5049981;28;8868;-85
2023/12/16 07:27:40;;;;;;;;;27.50;24.00;;;;;-2.02;65.21;101345.56;5052868;28;8934;-80
2023/12/16 07:30:10;;;;;;;;;30.00;30.00;;;;;-1.94;64.71;101341.72;5069419;28;8872;-82
2023/12/16 07:32:40;;;;;;;;;25.33;22.33;;;;;-1.90;65.01;101338.53;5055200;28;8860;-81
2023/12/16 07:35:13;;;;;;;;;36.40;25.80;;;;;-2.12;65.66;101352.72;5046599;28;8948;-79
2023/12/16 07:37:43;;;;;;;;;30.80;30.40;;;;;-2.07;65.64;101353.91;5002279;28;8850;-80
2023/12/16 07:40:12;;;;;;;;;31.40;28.80;;;;;-2.17;66.37;101358.41;5057518;28;9640;-82
2023/12/16 07:42:43;;;;;;;;;29.25;28.50;;;;;-2.09;66.44;101359.75;5035776;28;9994;-80
2023/12/16 07:45:12;;;;;;;;;27.60;27.00;;;;;-1.81;65.18;101370.00;5087448;28;8855;-80
2023/12/16 07:47:42;;;;;;;;;34.20;29.80;;;;;-1.91;65.58;101370.28;5086694;28;8862;-83
2023/12/16 07:50:11;;;;;;;;;31.60;26.00;;;;;-1.85;65.34;101368.03;5079521;28;8846;-72
2023/12/16 07:52:40;;;;;;;;;30.25;27.50;;;;;-1.78;65.76;101374.47;5072748;28;8886;-79
2023/12/16 07:55:10;;;;;;;;;30.40;26.60;;;;;-1.90;65.73;101367.78;5079002;28;8858;-80
2023/12/16 07:57:39;;;;;;;;;27.40;26.60;;;;;-1.81;65.74;101382.88;5070919;28;8845;-80
2023/12/16 08:00:11;;;;;;;;;35.75;27.25;;;;;-1.65;64.74;101369.22;5066486;28;8864;-78
2023/12/16 08:02:42;;;;;;;;;34.80;31.60;;;;;-1.68;64.92;101371.59;5097648;28;10064;-80
2023/12/16 08:05:10;;;;;;;;;33.50;30.50;;;;;-1.61;65.14;101381.50;5039886;28;9545;-80
2023/12/16 08:07:41;;;;;;;;;37.50;30.50;;;;;-1.74;65.56;101376.41;5059678;28;8874;-82
2023/12/16 08:10:10;;;;;;;;;26.25;23.50;;;;;-1.95;66.02;101378.63;5085173;28;8962;-81
2023/12/16 08:12:39;;;;;;;;;38.75;31.75;;;;;-1.82;66.08;101387.97;5068607;28;8846;-80
2023/12/16 08:15:10;;;;;;;;;37.00;32.25;;;;;-1.83;66.92;101386.19;5074755;28;9018;-78
2023/12/16 08:17:40;;;;;;;;;30.40;29.00;;;;;-1.70;66.34;101388.69;5051554;28;8852;-80
2023/12/16 08:20:10;;;;;;;;;36.75;35.50;;;;;-1.78;66.12;101393.41;5039380;28;8896;-79
2023/12/16 08:22:41;;;;;;;;;41.00;35.50;;;;;-1.65;66.30;101395.00;5039650;28;8838;-81
2023/12/16 08:25:10;;;;;;;;;34.25;29.75;;;;;-1.66;65.63;101398.38;5053221;28;8891;-78
2023/12/16 08:27:40;;;;;;;;;36.00;35.75;;;;;-1.87;66.19;101406.63;5051720;28;8969;-79
2023/12/16 08:30:13;;;;;;;;;30.00;27.25;;;;;-1.74;65.74;101397.03;5067238;28;8867;-78
2023/12/16 08:32:42;;;;;;;;;34.00;31.00;;;;;-1.69;65.10;101393.94;5050592;28;8948;-70
2023/12/16 08:35:11;;;;;;;;;41.00;35.00;;;;;-1.43;64.20;101391.06;5045884;28;9043;-82
2023/12/16 08:37:40;;;;;;;;;32.75;31.00;;;;;-1.84;64.55;101389.53;5029414;28;8847;-81
2023/12/16 08:40:11;;;;;;;;;31.80;26.80;;;;;-1.47;64.52;101391.72;5062112;28;8926;-81
2023/12/16 08:42:42;;;;;;;;;45.75;35.25;;;;;-1.34;64.60;101394.19;5013088;28;8889;-82
2023/12/16 08:45:13;;;;;;;;;35.40;31.00;;;;;-1.58;63.77;101394.56;5043595;28;8896;-83
2023/12/16 08:47:43;;;;;;;;;44.75;40.50;;;;;-1.26;63.31;101397.22;5054925;28;8860;-82
2023/12/16 08:50:12;;;;;;;;;38.75;34.75;;;;;-1.10;62.92;101399.88;5064358;28;8919;-81
2023/12/16 08:52:42;;;;;;;;;34.80;32.80;;;;;-0.94;63.20;101399.94;5077858;28;8984;-81
2023/12/16 08:55:12;;;;;;;;;34.40;32.80;;;;;-0.78;60.84;101418.84;5043797;28;8865;-86
2023/12/16 08:57:41;;;;;;;;;28.20;26.60;;;;;-0.98;62.15;101400.53;5095395;28;8850;-80
2023/12/16 09:00:11;;;;;;;;;32.00;27.60;;;;;-0.96;61.73;101395.47;5091205;28;8869;-80
2023/12/16 09:02:41;;;;;;;;;42.00;37.25;;;;;-0.81;61.64;101400.59;4988375;28;8867;-80
2023/12/16 09:05:11;;;;;;;;;28.00;24.60;;;;;-0.97;61.38;101401.44;5048522;28;8856;-81
2023/12/16 09:07:40;;;;;;;;;29.60;27.40;;;;;-0.92;61.30;101395.72;5092622;28;8869;-81
2023/12/16 09:10:09;;;;;;;;;30.60;28.40;;;;;-0.66;61.08;101396.25;5085752;28;8883;-82
2023/12/16 09:12:39;;;;;;;;;26.20;25.40;;;;;-0.18;59.61;101383.28;5011218;28;9008;-81
2023/12/16 09:15:09;;;;;;;;;38.60;32.20;;;;;-0.11;58.45;101393.16;5025556;28;9050;-81
2023/12/16 09:17:38;;;;;;;;;31.00;29.00;;;;;-0.29;58.60;101398.25;5010477;28;8901;-78
2023/12/16 09:20:09;;;;;;;;;30.40;27.60;;;;;0.01;58.31;101401.56;5009540;28;8886;-82
2023/12/16 09:22:39;;;;;;;;;37.50;35.25;;;;;0.52;57.78;101391.19;5022976;28;9653;-81
2023/12/16 09:25:08;;;;;;;;;30.40;29.20;;;;;0.90;56.78;101391.28;5018255;28;8886;-81
2023/12/16 09:27:38;;;;;;;;;31.80;30.00;;;;;0.08;57.15;101387.22;5027773;28;8868;-83
2023/12/16 09:30:08;;;;;;;;;35.20;34.20;;;;;0.23;58.13;101393.19;5027616;28;8880;-81
2023/12/16 09:32:37;;;;;;;;;34.80;32.40;;;;;-0.33;58.54;101398.91;4998128;28;8846;-82
2023/12/16 09:35:07;;;;;;;;;27.40;24.20;;;;;-0.72;59.52;101399.41;4987620;28;8856;-80
2023/12/16 09:37:38;;;;;;;;;32.60;31.20;;;;;-0.42;59.97;101396.69;5013012;28;8829;-82
2023/12/16 09:40:08;;;;;;;;;36.40;33.60;;;;;0.11;58.11;101400.34;5020724;28;8940;-80
2023/12/16 09:42:39;;;;;;;;;30.00;25.80;;;;;-0.14;57.32;101393.88;5032596;28;8852;-81
2023/12/16 09:45:09;;;;;;;;;32.00;23.00;;;;;0.08;57.36;101393.31;5075175;28;8985;-81
2023/12/16 09:47:39;;;;;;;;;27.00;24.20;;;;;0.70;55.89;101390.31;5107950;28;8842;-78
2023/12/16 09:50:11;;;;;;;;;26.20;25.40;;;;;1.21;54.73;101393.66;5085739;28;8969;-81
2023/12/16 09:52:41;;;;;;;;;41.40;33.60;;;;;1.18;53.65;101409.97;5069388;28;8989;-80
2023/12/16 09:55:10;;;;;;;;;34.20;32.80;;;;;0.71;53.91;101410.19;5106862;28;8856;-79
2023/12/16 09:57:41;;;;;;;;;27.40;25.60;;;;;0.58;55.17;101406.13;5090771;28;8844;-81
2023/12/16 10:00:13;;;;;;;;;31.20;27.20;;;;;0.43;55.16;101420.06;5107496;28;8885;-80
2023/12/16 10:02:46;;;;;;;;;26.20;23.00;;;;;0.06;54.49;101423.34;5090954;28;8955;-82
2023/12/16 10:05:17;;;;;;;;;32.20;30.40;;;;;-0.01;55.22;101421.28;5100582;28;8968;-81
2023/12/16 10:07:47;;;;;;;;;25.40;23.00;;;;;-0.21;54.71;101430.56;5061513;28;8888;-81
2023/12/16 10:10:16;;;;;;;;;30.60;28.80;;;;;-0.24;55.61;101421.75;5070758;28;8852;-80
2023/12/16 10:12:47;;;;;;;;;29.60;27.00;;;;;-0.26;56.41;101426.81;5034666;28;8957;-79
2023/12/16 10:15:30;;;;;;;;;38.20;31.80;;;;;0.01;55.69;101423.91;5050586;28;8868;-81
2023/12/16 10:18:01;;;;;;;;;31.60;28.80;;;;;0.26;54.53;101424.38;5054380;28;8857;-82
2023/12/16 10:20:31;;;;;;;;;25.40;24.80;;;;;0.75;55.04;101417.31;5087481;28;9922;-79
2023/12/16 10:23:02;;;;;;;;;24.40;23.00;;;;;1.13;53.38;101428.69;5052616;28;9974;-81
2023/12/16 10:25:32;;;;;;;;;42.50;38.75;;;;;1.16;52.60;101424.53;5037635;28;8828;-82
2023/12/16 10:28:02;;;;;;;;;25.80;24.80;;;;;1.69;51.86;101433.03;5100687;28;9005;-79
2023/12/16 10:30:32;;;;;;;;;30.40;28.00;;;;;2.01;50.88;101431.91;5104049;28;8840;-82
2023/12/16 10:33:03;;;;;;;;;25.20;24.00;;;;;2.33;50.47;101426.31;5053791;28;8824;-80
2023/12/16 10:35:33;;;;;;;;;29.80;21.40;;;;;2.65;48.79;101426.81;5070058;28;8873;-81
2023/12/16 10:38:04;;;;;;;;;29.40;26.80;;;;;2.88;48.26;101425.16;5060917;28;9748;-79
2023/12/16 10:40:37;;;;;;;;;28.20;26.60;;;;;2.51;48.28;101423.63;5068772;28;8858;-83
2023/12/16 10:43:08;;;;;;;;;28.20;26.60;;;;;2.76;48.31;101418.63;5049411;28;9057;-81
2023/12/16 10:45:37;;;;;;;;;28.00;27.60;;;;;3.07;47.71;101419.88;5085337;28;9023;-80
2023/12/16 10:48:11;;;;;;;;;28.20;27.40;;;;;3.47;47.00;101421.47;5065827;28;8893;-79
2023/12/16 10:50:44;;;;;;;;;38.80;37.20;;;;;3.72;45.83;101417.19;5065506;28;9047;-80
2023/12/16 10:53:22;;;;;;;;;34.40;29.60;;;;;3.84;46.04;101420.22;5059067;28;8838;-80
2023/12/16 10:55:55;;;;;;;;;31.20;29.40;;;;;4.08;45.42;101421.97;5029212;28;8872;-79
2023/12/16 10:58:26;;;;;;;;;26.20;25.00;;;;;3.96;45.25;101415.50;5064815;28;9019;-79
2023/12/16 11:01:05;;;;;;;;;32.20;28.20;;;;;2.73;46.36;101426.31;5082348;28;8889;-79
2023/12/16 11:03:38;;;;;;;;;28.20;26.40;;;;;1.31;50.65;101429.53;5066380;28;8848;-79
2023/12/16 11:06:09;;;;;;;;;35.20;30.80;;;;;0.65;54.36;101423.72;5069369;28;8848;-79
2023/12/16 11:08:40;;;;;;;;;34.40;28.60;;;;;0.42;55.80;101427.75;5068201;28;9094;-79
2023/12/16 11:11:10;;;;;;;;;40.75;35.25;;;;;0.75;54.81;101428.56;5054388;28;8851;-78
2023/12/16 11:13:40;;;;;;;;;39.60;32.20;;;;;0.68;55.54;101417.84;5089505;28;8843;-79
2023/12/16 11:16:16;;;;;;;;;33.00;29.25;;;;;0.27;56.45;101438.19;5091069;28;8862;-79
2023/12/16 11:18:50;;;;;;;;;30.75;27.75;;;;;0.20;57.81;101434.44;5089675;28;9585;-79
2023/12/16 11:21:22;;;;;;;;;40.00;35.75;;;;;-0.03;58.73;101440.06;5101550;28;8897;-79
2023/12/16 11:23:54;;;;;;;;;38.60;34.80;;;;;0.03;58.40;101430.97;5054585;28;8894;-81
2023/12/16 11:26:25;;;;;;;;;38.25;36.00;;;;;-0.02;58.38;101431.53;5035383;28;9168;-78
2023/12/16 11:28:56;;;;;;;;;41.25;33.50;;;;;-0.15;58.76;101436.03;5035481;28;8850;-79
2023/12/16 11:31:26;;;;;;;;;35.75;32.25;;;;;0.25;58.10;101421.72;5032434;28;8854;-79
2023/12/16 11:33:55;;;;;;;;;43.50;40.25;;;;;0.13;57.91;101423.69;5031908;28;8850;-78